Go Back  PPRuNe Forums > Flight Deck Forums > Rumours & News
Reload this Page >

Indonesia - again....

Rumours & News Reporting Points that may affect our jobs or lives as professional pilots. Also, items that may be of interest to professional pilots.

Indonesia - again....

Old 1st Jun 2012, 18:31
  #1 (permalink)  
Thread Starter
 
Join Date: Mar 2006
Location: Choroni, sometimes
Posts: 1,974
Likes: 0
Received 0 Likes on 0 Posts
Indonesia - again....



A PLANE carrying 163 passengers and crew on a domestic flight skidded off the runway in Indonesia yesterday. The incident happened in Kalimantan province yesterday but no one was hurt, the transport ministry said.


Metars:
WIOO 010630Z 15003KT 6000 TSRA FEW011CB BKN008 24/24 Q1007 RMK CB TO NE NOSIG
WIOO 010600Z 3000 TSRA FEW010CB BKN008 24/24 Q1007 RMK CB TO NE
WIOO 010530Z 23022KT 0600 FEW009CB BKN007 29/25 Q1008 RMK CB OVER THE FIELD
WIOO 010500Z 00000KT 9999 BKN009 FEW011CB 32/25 Q1008 RMK CB TOW TEMPO FM0600 TL0800 6000 RA
WIOO 010430Z 36004KT 9999 BKN011 32/25 Q1008 NOSIG
WIOO 010400Z 00000KT 9999 BKN011 31/25 Q1009 NOSIG
WIOO 010330Z 02004KT 9999 BKN011 29/25 Q1009 NOSIG
WIOO 010200Z 04004KT 9999 SCT011 28/25 Q1010 NOSIG
hetfield is offline  

Posting Rules
You may not post new threads
You may not post replies
You may not post attachments
You may not edit your posts

BB code is On
Smilies are On
[IMG] code is On
HTML code is Off
Trackbacks are Off
Pingbacks are Off
Refbacks are Off


Thread Tools
Search this Thread

Contact Us - Archive - Advertising - Cookie Policy - Privacy Statement - Terms of Service

Copyright © 2024 MH Sub I, LLC dba Internet Brands. All rights reserved. Use of this site indicates your consent to the Terms of Use.